Athens, Wisconsin
Current Conditions -  °F | °C
As of 12:35 AM on Tuesday 21 Oct 2014 (Local Time) from KMDZ Reporting Station
Overcast Overcast  
Wind Chill: 41°   Ceiling: 3300
Heat Index: 44°   Visibility: 10mi
Dew Point: 39°   Wind: 5mph
Humidity: 84%   Direction: 20°NNE
Pressure: 30.08"   Gusts: NA
Location:  45.03°N, 90.07°W
Report Text: KMDZ 210535Z AUTO 02004KT 10SM SCT019 OVC033 07/04 A3008 RMK AO2 T00650040
Loading
Personal Weather Stations






























Interactive Weather Map New forecast layout! Learn more

10-Day Weather Forecast

Advertisements
Track Severe Weather on mobile